sensor_id;sensor_type;location;lat;lon;timestamp;P1;durP1;ratioP1;P2;durP2;ratioP2
79616;SDS011;69097;52.132;5.422;2023-07-29T00:00:44;4.28;;;2.03;;
79616;SDS011;69097;52.132;5.422;2023-07-29T00:03:11;3.83;;;1.50;;
79616;SDS011;69097;52.132;5.422;2023-07-29T00:05:37;5.93;;;1.73;;
79616;SDS011;69097;52.132;5.422;2023-07-29T00:08:04;5.90;;;1.70;;
79616;SDS011;69097;52.132;5.422;2023-07-29T00:10:32;4.45;;;1.65;;
79616;SDS011;69097;52.132;5.422;2023-07-29T00:13:03;3.88;;;1.05;;
79616;SDS011;69097;52.132;5.422;2023-07-29T00:15:31;4.88;;;1.92;;
79616;SDS011;69097;52.132;5.422;2023-07-29T00:20:25;4.80;;;1.83;;
79616;SDS011;69097;52.132;5.422;2023-07-29T00:22:51;3.85;;;1.63;;
79616;SDS011;69097;52.132;5.422;2023-07-29T00:25:21;3.80;;;2.00;;
79616;SDS011;69097;52.132;5.422;2023-07-29T00:27:47;3.95;;;2.03;;
79616;SDS011;69097;52.132;5.422;2023-07-29T00:30:14;6.05;;;1.55;;
79616;SDS011;69097;52.132;5.422;2023-07-29T00:32:40;4.57;;;1.58;;
79616;SDS011;69097;52.132;5.422;2023-07-29T00:35:07;4.43;;;1.60;;
79616;SDS011;69097;52.132;5.422;2023-07-29T00:40:01;4.28;;;1.67;;
79616;SDS011;69097;52.132;5.422;2023-07-29T00:42:27;4.30;;;1.35;;
79616;SDS011;69097;52.132;5.422;2023-07-29T00:44:53;3.50;;;1.63;;
79616;SDS011;69097;52.132;5.422;2023-07-29T00:47:20;5.05;;;1.92;;
79616;SDS011;69097;52.132;5.422;2023-07-29T00:49:48;4.22;;;1.67;;
79616;SDS011;69097;52.132;5.422;2023-07-29T00:52:16;3.90;;;1.40;;
79616;SDS011;69097;52.132;5.422;2023-07-29T00:54:42;4.05;;;1.23;;
79616;SDS011;69097;52.132;5.422;2023-07-29T00:57:09;4.35;;;0.80;;
79616;SDS011;69097;52.132;5.422;2023-07-29T00:59:40;5.20;;;1.25;;
79616;SDS011;69097;52.132;5.422;2023-07-29T01:02:07;5.50;;;1.48;;
79616;SDS011;69097;52.132;5.422;2023-07-29T01:04:35;4.00;;;1.35;;
79616;SDS011;69097;52.132;5.422;2023-07-29T01:07:18;3.92;;;1.58;;
79616;SDS011;69097;52.132;5.422;2023-07-29T01:15:23;3.70;;;1.20;;
79616;SDS011;69097;52.132;5.422;2023-07-29T01:17:54;4.47;;;2.03;;
79616;SDS011;69097;52.132;5.422;2023-07-29T01:20:25;4.28;;;1.52;;
79616;SDS011;69097;52.132;5.422;2023-07-29T01:22:53;4.43;;;2.13;;
79616;SDS011;69097;52.132;5.422;2023-07-29T01:25:20;4.82;;;2.10;;
79616;SDS011;69097;52.132;5.422;2023-07-29T01:27:48;6.05;;;1.35;;
79616;SDS011;69097;52.132;5.422;2023-07-29T01:30:18;4.97;;;2.65;;
79616;SDS011;69097;52.132;5.422;2023-07-29T01:33:04;5.07;;;1.50;;
79616;SDS011;69097;52.132;5.422;2023-07-29T01:35:48;6.65;;;1.65;;
79616;SDS011;69097;52.132;5.422;2023-07-29T01:38:37;3.60;;;1.77;;
79616;SDS011;69097;52.132;5.422;2023-07-29T01:41:06;4.72;;;2.28;;
79616;SDS011;69097;52.132;5.422;2023-07-29T01:43:34;4.22;;;2.00;;
79616;SDS011;69097;52.132;5.422;2023-07-29T01:46:05;4.50;;;2.22;;
79616;SDS011;69097;52.132;5.422;2023-07-29T01:48:32;6.68;;;2.10;;
79616;SDS011;69097;52.132;5.422;2023-07-29T01:50:58;4.90;;;2.30;;
79616;SDS011;69097;52.132;5.422;2023-07-29T01:53:25;4.55;;;1.90;;
79616;SDS011;69097;52.132;5.422;2023-07-29T01:55:51;5.82;;;1.95;;
79616;SDS011;69097;52.132;5.422;2023-07-29T01:58:18;4.38;;;2.30;;
79616;SDS011;69097;52.132;5.422;2023-07-29T02:00:44;6.63;;;2.30;;
79616;SDS011;69097;52.132;5.422;2023-07-29T02:03:11;5.70;;;2.20;;
79616;SDS011;69097;52.132;5.422;2023-07-29T02:05:37;4.43;;;1.75;;
79616;SDS011;69097;52.132;5.422;2023-07-29T02:08:04;4.88;;;1.90;;
79616;SDS011;69097;52.132;5.422;2023-07-29T02:10:30;5.40;;;2.08;;
79616;SDS011;69097;52.132;5.422;2023-07-29T02:12:57;7.60;;;2.20;;
79616;SDS011;69097;52.132;5.422;2023-07-29T02:15:23;5.00;;;2.22;;
79616;SDS011;69097;52.132;5.422;2023-07-29T02:17:50;5.85;;;2.67;;
79616;SDS011;69097;52.132;5.422;2023-07-29T02:20:18;7.03;;;2.90;;
79616;SDS011;69097;52.132;5.422;2023-07-29T02:22:44;6.47;;;2.47;;
79616;SDS011;69097;52.132;5.422;2023-07-29T02:25:12;8.27;;;2.47;;
79616;SDS011;69097;52.132;5.422;2023-07-29T02:27:39;5.93;;;2.42;;
79616;SDS011;69097;52.132;5.422;2023-07-29T02:30:05;8.88;;;3.00;;
79616;SDS011;69097;52.132;5.422;2023-07-29T02:32:34;7.57;;;3.05;;
79616;SDS011;69097;52.132;5.422;2023-07-29T02:35:01;5.32;;;2.03;;
79616;SDS011;69097;52.132;5.422;2023-07-29T02:37:28;6.40;;;3.10;;
79616;SDS011;69097;52.132;5.422;2023-07-29T02:39:54;6.55;;;3.13;;
79616;SDS011;69097;52.132;5.422;2023-07-29T02:42:21;8.65;;;3.60;;
79616;SDS011;69097;52.132;5.422;2023-07-29T02:44:47;8.02;;;2.85;;
79616;SDS011;69097;52.132;5.422;2023-07-29T02:47:14;7.60;;;3.22;;
79616;SDS011;69097;52.132;5.422;2023-07-29T02:49:40;8.07;;;3.65;;
79616;SDS011;69097;52.132;5.422;2023-07-29T02:52:08;8.40;;;3.15;;
79616;SDS011;69097;52.132;5.422;2023-07-29T02:54:34;7.82;;;3.50;;
79616;SDS011;69097;52.132;5.422;2023-07-29T02:57:01;8.38;;;3.63;;
79616;SDS011;69097;52.132;5.422;2023-07-29T02:59:27;6.60;;;3.47;;
79616;SDS011;69097;52.132;5.422;2023-07-29T03:01:56;9.25;;;4.15;;
79616;SDS011;69097;52.132;5.422;2023-07-29T03:04:22;7.40;;;3.50;;
79616;SDS011;69097;52.132;5.422;2023-07-29T03:09:16;9.00;;;3.75;;
79616;SDS011;69097;52.132;5.422;2023-07-29T03:11:42;8.82;;;3.58;;
79616;SDS011;69097;52.132;5.422;2023-07-29T03:14:09;7.57;;;3.78;;
79616;SDS011;69097;52.132;5.422;2023-07-29T03:16:35;7.25;;;3.42;;
79616;SDS011;69097;52.132;5.422;2023-07-29T03:19:02;10.57;;;3.58;;
79616;SDS011;69097;52.132;5.422;2023-07-29T03:21:29;7.53;;;3.45;;
79616;SDS011;69097;52.132;5.422;2023-07-29T03:23:55;7.03;;;3.25;;
79616;SDS011;69097;52.132;5.422;2023-07-29T03:26:22;9.82;;;3.67;;
79616;SDS011;69097;52.132;5.422;2023-07-29T03:28:48;9.48;;;4.45;;
79616;SDS011;69097;52.132;5.422;2023-07-29T03:31:15;7.95;;;3.67;;
79616;SDS011;69097;52.132;5.422;2023-07-29T03:33:41;7.28;;;3.47;;
79616;SDS011;69097;52.132;5.422;2023-07-29T03:36:08;8.85;;;3.55;;
79616;SDS011;69097;52.132;5.422;2023-07-29T03:38:35;9.20;;;3.55;;
79616;SDS011;69097;52.132;5.422;2023-07-29T03:41:09;14.27;;;4.15;;
79616;SDS011;69097;52.132;5.422;2023-07-29T03:43:36;8.48;;;3.85;;
79616;SDS011;69097;52.132;5.422;2023-07-29T03:46:03;7.10;;;2.67;;
79616;SDS011;69097;52.132;5.422;2023-07-29T03:48:29;8.57;;;3.22;;
79616;SDS011;69097;52.132;5.422;2023-07-29T03:50:57;8.25;;;3.92;;
79616;SDS011;69097;52.132;5.422;2023-07-29T03:53:23;8.57;;;3.75;;
79616;SDS011;69097;52.132;5.422;2023-07-29T03:55:50;8.18;;;3.63;;
79616;SDS011;69097;52.132;5.422;2023-07-29T03:58:16;9.35;;;3.45;;
79616;SDS011;69097;52.132;5.422;2023-07-29T04:00:43;8.80;;;3.40;;
79616;SDS011;69097;52.132;5.422;2023-07-29T04:03:09;7.45;;;3.80;;
79616;SDS011;69097;52.132;5.422;2023-07-29T04:05:36;9.32;;;3.60;;
79616;SDS011;69097;52.132;5.422;2023-07-29T04:08:03;8.20;;;3.13;;
79616;SDS011;69097;52.132;5.422;2023-07-29T04:10:29;8.07;;;3.70;;
79616;SDS011;69097;52.132;5.422;2023-07-29T04:12:58;6.90;;;3.30;;
79616;SDS011;69097;52.132;5.422;2023-07-29T04:15:24;9.30;;;3.30;;
79616;SDS011;69097;52.132;5.422;2023-07-29T04:17:51;6.45;;;3.45;;
79616;SDS011;69097;52.132;5.422;2023-07-29T04:20:17;6.60;;;2.83;;
79616;SDS011;69097;52.132;5.422;2023-07-29T04:22:44;4.90;;;1.70;;
79616;SDS011;69097;52.132;5.422;2023-07-29T04:25:10;5.95;;;2.83;;
79616;SDS011;69097;52.132;5.422;2023-07-29T04:27:37;6.47;;;2.60;;
79616;SDS011;69097;52.132;5.422;2023-07-29T04:30:04;5.30;;;2.97;;
79616;SDS011;69097;52.132;5.422;2023-07-29T04:34:57;6.65;;;2.38;;
79616;SDS011;69097;52.132;5.422;2023-07-29T04:37:23;7.70;;;2.40;;
79616;SDS011;69097;52.132;5.422;2023-07-29T04:39:50;6.90;;;2.38;;
79616;SDS011;69097;52.132;5.422;2023-07-29T04:42:16;6.57;;;2.83;;
79616;SDS011;69097;52.132;5.422;2023-07-29T04:44:43;4.95;;;2.28;;
79616;SDS011;69097;52.132;5.422;2023-07-29T04:47:09;6.05;;;2.85;;
79616;SDS011;69097;52.132;5.422;2023-07-29T04:49:36;5.32;;;1.33;;
79616;SDS011;69097;52.132;5.422;2023-07-29T04:52:02;6.05;;;2.70;;
79616;SDS011;69097;52.132;5.422;2023-07-29T04:54:29;6.85;;;2.67;;
79616;SDS011;69097;52.132;5.422;2023-07-29T04:56:56;5.25;;;2.42;;
79616;SDS011;69097;52.132;5.422;2023-07-29T04:59:22;6.35;;;2.40;;
79616;SDS011;69097;52.132;5.422;2023-07-29T05:01:49;6.45;;;2.10;;
79616;SDS011;69097;52.132;5.422;2023-07-29T05:04:20;4.80;;;2.22;;
79616;SDS011;69097;52.132;5.422;2023-07-29T05:06:46;5.10;;;2.42;;
79616;SDS011;69097;52.132;5.422;2023-07-29T05:09:16;4.63;;;2.35;;
79616;SDS011;69097;52.132;5.422;2023-07-29T05:11:44;6.13;;;1.38;;
79616;SDS011;69097;52.132;5.422;2023-07-29T05:14:12;6.20;;;2.53;;
79616;SDS011;69097;52.132;5.422;2023-07-29T05:16:39;6.72;;;2.55;;
79616;SDS011;69097;52.132;5.422;2023-07-29T05:19:07;4.20;;;2.03;;
79616;SDS011;69097;52.132;5.422;2023-07-29T05:21:34;5.28;;;2.08;;
79616;SDS011;69097;52.132;5.422;2023-07-29T05:24:01;5.50;;;2.15;;
79616;SDS011;69097;52.132;5.422;2023-07-29T05:26:27;5.95;;;2.50;;
79616;SDS011;69097;52.132;5.422;2023-07-29T05:28:54;4.72;;;1.60;;
79616;SDS011;69097;52.132;5.422;2023-07-29T05:31:20;5.72;;;2.22;;
79616;SDS011;69097;52.132;5.422;2023-07-29T05:33:47;5.40;;;2.67;;
79616;SDS011;69097;52.132;5.422;2023-07-29T05:36:14;6.75;;;2.67;;
79616;SDS011;69097;52.132;5.422;2023-07-29T05:41:09;7.95;;;2.85;;
79616;SDS011;69097;52.132;5.422;2023-07-29T05:43:36;6.32;;;2.60;;
79616;SDS011;69097;52.132;5.422;2023-07-29T05:48:29;5.50;;;2.53;;
79616;SDS011;69097;52.132;5.422;2023-07-29T05:50:56;6.95;;;2.88;;
79616;SDS011;69097;52.132;5.422;2023-07-29T05:53:22;6.38;;;2.85;;
79616;SDS011;69097;52.132;5.422;2023-07-29T05:55:49;6.38;;;2.55;;
79616;SDS011;69097;52.132;5.422;2023-07-29T05:58:15;7.50;;;2.88;;
79616;SDS011;69097;52.132;5.422;2023-07-29T06:00:42;6.97;;;3.40;;
79616;SDS011;69097;52.132;5.422;2023-07-29T06:03:08;7.88;;;3.25;;
79616;SDS011;69097;52.132;5.422;2023-07-29T06:05:35;6.75;;;1.90;;
79616;SDS011;69097;52.132;5.422;2023-07-29T06:08:02;6.82;;;1.73;;
79616;SDS011;69097;52.132;5.422;2023-07-29T06:10:28;9.02;;;3.28;;
79616;SDS011;69097;52.132;5.422;2023-07-29T06:12:55;8.57;;;3.55;;
79616;SDS011;69097;52.132;5.422;2023-07-29T06:15:21;6.55;;;4.00;;
79616;SDS011;69097;52.132;5.422;2023-07-29T06:17:49;7.97;;;2.92;;
79616;SDS011;69097;52.132;5.422;2023-07-29T06:20:16;10.30;;;3.45;;
79616;SDS011;69097;52.132;5.422;2023-07-29T06:22:42;6.35;;;2.90;;
79616;SDS011;69097;52.132;5.422;2023-07-29T06:25:09;7.25;;;2.88;;
79616;SDS011;69097;52.132;5.422;2023-07-29T06:27:35;7.88;;;3.33;;
79616;SDS011;69097;52.132;5.422;2023-07-29T06:30:02;5.97;;;2.35;;
79616;SDS011;69097;52.132;5.422;2023-07-29T06:32:29;6.43;;;3.42;;
79616;SDS011;69097;52.132;5.422;2023-07-29T06:34:55;7.60;;;2.95;;
79616;SDS011;69097;52.132;5.422;2023-07-29T06:37:22;8.75;;;3.38;;
79616;SDS011;69097;52.132;5.422;2023-07-29T06:39:48;9.48;;;3.45;;
79616;SDS011;69097;52.132;5.422;2023-07-29T06:42:15;6.53;;;2.25;;
79616;SDS011;69097;52.132;5.422;2023-07-29T06:44:41;9.32;;;3.58;;
79616;SDS011;69097;52.132;5.422;2023-07-29T06:47:08;7.13;;;3.63;;
79616;SDS011;69097;52.132;5.422;2023-07-29T06:49:35;9.35;;;3.90;;
79616;SDS011;69097;52.132;5.422;2023-07-29T06:52:01;7.30;;;3.38;;
79616;SDS011;69097;52.132;5.422;2023-07-29T06:54:27;9.63;;;4.20;;
79616;SDS011;69097;52.132;5.422;2023-07-29T06:56:54;8.13;;;3.97;;
79616;SDS011;69097;52.132;5.422;2023-07-29T06:59:22;9.63;;;3.63;;
79616;SDS011;69097;52.132;5.422;2023-07-29T07:01:50;8.05;;;3.33;;
79616;SDS011;69097;52.132;5.422;2023-07-29T07:04:17;6.70;;;4.05;;
79616;SDS011;69097;52.132;5.422;2023-07-29T07:06:43;8.07;;;4.93;;
79616;SDS011;69097;52.132;5.422;2023-07-29T07:09:09;10.60;;;4.22;;
79616;SDS011;69097;52.132;5.422;2023-07-29T07:11:36;8.63;;;4.65;;
79616;SDS011;69097;52.132;5.422;2023-07-29T07:14:02;10.02;;;5.20;;
79616;SDS011;69097;52.132;5.422;2023-07-29T07:16:29;8.60;;;4.53;;
79616;SDS011;69097;52.132;5.422;2023-07-29T07:18:56;8.10;;;4.57;;
79616;SDS011;69097;52.132;5.422;2023-07-29T07:21:23;7.78;;;4.45;;
79616;SDS011;69097;52.132;5.422;2023-07-29T07:23:50;9.48;;;4.30;;
79616;SDS011;69097;52.132;5.422;2023-07-29T07:28:43;7.97;;;4.10;;
79616;SDS011;69097;52.132;5.422;2023-07-29T07:31:09;9.77;;;3.95;;
79616;SDS011;69097;52.132;5.422;2023-07-29T07:33:36;9.05;;;3.17;;
79616;SDS011;69097;52.132;5.422;2023-07-29T07:36:02;6.80;;;3.17;;
79616;SDS011;69097;52.132;5.422;2023-07-29T07:38:29;8.00;;;4.00;;
79616;SDS011;69097;52.132;5.422;2023-07-29T07:40:56;9.93;;;4.65;;
79616;SDS011;69097;52.132;5.422;2023-07-29T07:45:50;8.50;;;3.97;;
79616;SDS011;69097;52.132;5.422;2023-07-29T07:48:18;9.02;;;4.85;;
79616;SDS011;69097;52.132;5.422;2023-07-29T07:50:46;8.07;;;4.53;;
79616;SDS011;69097;52.132;5.422;2023-07-29T07:53:12;9.98;;;4.82;;
79616;SDS011;69097;52.132;5.422;2023-07-29T07:55:39;6.97;;;3.47;;
79616;SDS011;69097;52.132;5.422;2023-07-29T07:58:05;9.68;;;5.03;;
79616;SDS011;69097;52.132;5.422;2023-07-29T08:00:32;8.10;;;4.15;;
79616;SDS011;69097;52.132;5.422;2023-07-29T08:02:58;9.27;;;4.28;;
79616;SDS011;69097;52.132;5.422;2023-07-29T08:05:25;7.45;;;4.63;;
79616;SDS011;69097;52.132;5.422;2023-07-29T08:07:52;8.23;;;4.80;;
79616;SDS011;69097;52.132;5.422;2023-07-29T08:10:18;8.13;;;4.50;;
79616;SDS011;69097;52.132;5.422;2023-07-29T08:12:44;7.07;;;4.45;;
79616;SDS011;69097;52.132;5.422;2023-07-29T08:15:11;7.10;;;3.60;;
79616;SDS011;69097;52.132;5.422;2023-07-29T08:17:37;7.20;;;3.88;;
79616;SDS011;69097;52.132;5.422;2023-07-29T08:20:04;9.45;;;3.88;;
79616;SDS011;69097;52.132;5.422;2023-07-29T08:24:58;6.75;;;3.70;;
79616;SDS011;69097;52.132;5.422;2023-07-29T08:27:24;6.82;;;3.53;;
79616;SDS011;69097;52.132;5.422;2023-07-29T08:29:51;6.53;;;3.78;;
79616;SDS011;69097;52.132;5.422;2023-07-29T08:32:17;6.15;;;3.72;;
79616;SDS011;69097;52.132;5.422;2023-07-29T08:34:44;6.82;;;3.03;;
79616;SDS011;69097;52.132;5.422;2023-07-29T08:37:10;8.18;;;3.33;;
79616;SDS011;69097;52.132;5.422;2023-07-29T08:39:37;6.30;;;3.83;;
79616;SDS011;69097;52.132;5.422;2023-07-29T08:42:04;7.70;;;3.55;;
79616;SDS011;69097;52.132;5.422;2023-07-29T08:44:43;6.57;;;3.75;;
79616;SDS011;69097;52.132;5.422;2023-07-29T08:47:11;6.38;;;2.15;;
79616;SDS011;69097;52.132;5.422;2023-07-29T08:49:42;5.72;;;3.35;;
79616;SDS011;69097;52.132;5.422;2023-07-29T08:52:11;5.40;;;3.22;;
79616;SDS011;69097;52.132;5.422;2023-07-29T08:54:41;5.35;;;2.70;;
79616;SDS011;69097;52.132;5.422;2023-07-29T08:57:08;5.88;;;2.83;;
79616;SDS011;69097;52.132;5.422;2023-07-29T08:59:34;8.18;;;2.90;;
79616;SDS011;69097;52.132;5.422;2023-07-29T09:04:28;5.55;;;2.70;;
79616;SDS011;69097;52.132;5.422;2023-07-29T09:09:22;6.53;;;3.50;;
79616;SDS011;69097;52.132;5.422;2023-07-29T09:11:48;7.25;;;3.00;;
79616;SDS011;69097;52.132;5.422;2023-07-29T09:14:15;5.78;;;2.20;;
79616;SDS011;69097;52.132;5.422;2023-07-29T09:16:41;6.50;;;2.85;;
79616;SDS011;69097;52.132;5.422;2023-07-29T09:19:08;5.47;;;3.17;;
79616;SDS011;69097;52.132;5.422;2023-07-29T09:21:38;5.65;;;3.47;;
79616;SDS011;69097;52.132;5.422;2023-07-29T09:24:05;5.68;;;4.28;;
79616;SDS011;69097;52.132;5.422;2023-07-29T09:26:34;5.95;;;3.55;;
79616;SDS011;69097;52.132;5.422;2023-07-29T09:29:01;6.78;;;4.15;;
79616;SDS011;69097;52.132;5.422;2023-07-29T09:31:28;8.85;;;3.50;;
79616;SDS011;69097;52.132;5.422;2023-07-29T09:33:59;5.35;;;3.35;;
79616;SDS011;69097;52.132;5.422;2023-07-29T09:36:30;6.60;;;3.78;;
79616;SDS011;69097;52.132;5.422;2023-07-29T09:38:58;5.70;;;3.53;;
79616;SDS011;69097;52.132;5.422;2023-07-29T09:41:28;6.80;;;3.40;;
79616;SDS011;69097;52.132;5.422;2023-07-29T09:44:00;8.95;;;3.75;;
79616;SDS011;69097;52.132;5.422;2023-07-29T09:46:37;7.00;;;3.58;;
79616;SDS011;69097;52.132;5.422;2023-07-29T09:49:05;5.50;;;3.55;;
79616;SDS011;69097;52.132;5.422;2023-07-29T09:51:37;6.20;;;3.80;;
79616;SDS011;69097;52.132;5.422;2023-07-29T09:54:11;6.30;;;3.60;;
79616;SDS011;69097;52.132;5.422;2023-07-29T09:56:39;12.07;;;3.58;;
79616;SDS011;69097;52.132;5.422;2023-07-29T09:59:08;8.38;;;4.03;;
79616;SDS011;69097;52.132;5.422;2023-07-29T10:01:36;5.32;;;3.70;;
79616;SDS011;69097;52.132;5.422;2023-07-29T10:04:03;12.88;;;5.00;;
79616;SDS011;69097;52.132;5.422;2023-07-29T10:06:30;12.65;;;4.88;;
79616;SDS011;69097;52.132;5.422;2023-07-29T10:09:01;10.23;;;4.97;;
79616;SDS011;69097;52.132;5.422;2023-07-29T10:11:28;8.18;;;5.30;;
79616;SDS011;69097;52.132;5.422;2023-07-29T10:13:55;6.57;;;5.03;;
79616;SDS011;69097;52.132;5.422;2023-07-29T10:16:34;7.65;;;5.22;;
79616;SDS011;69097;52.132;5.422;2023-07-29T10:19:03;8.35;;;5.07;;
79616;SDS011;69097;52.132;5.422;2023-07-29T10:21:31;8.05;;;4.90;;
79616;SDS011;69097;52.132;5.422;2023-07-29T10:24:00;8.23;;;4.80;;
79616;SDS011;69097;52.132;5.422;2023-07-29T10:26:30;8.43;;;6.05;;
79616;SDS011;69097;52.132;5.422;2023-07-29T10:29:02;7.82;;;5.53;;
79616;SDS011;69097;52.132;5.422;2023-07-29T10:31:32;11.23;;;5.65;;
79616;SDS011;69097;52.132;5.422;2023-07-29T10:34:13;9.13;;;5.68;;
79616;SDS011;69097;52.132;5.422;2023-07-29T10:36:42;8.50;;;5.55;;
79616;SDS011;69097;52.132;5.422;2023-07-29T10:47:23;9.48;;;5.75;;
79616;SDS011;69097;52.132;5.422;2023-07-29T10:50:21;7.00;;;5.55;;
79616;SDS011;69097;52.132;5.422;2023-07-29T10:52:52;9.80;;;6.10;;
79616;SDS011;69097;52.132;5.422;2023-07-29T10:58:05;9.85;;;5.70;;
79616;SDS011;69097;52.132;5.422;2023-07-29T11:00:38;7.95;;;5.30;;
79616;SDS011;69097;52.132;5.422;2023-07-29T11:03:05;8.52;;;6.00;;
79616;SDS011;69097;52.132;5.422;2023-07-29T11:05:46;9.30;;;6.03;;
79616;SDS011;69097;52.132;5.422;2023-07-29T11:08:27;8.23;;;5.15;;
79616;SDS011;69097;52.132;5.422;2023-07-29T11:10:59;6.18;;;3.45;;
79616;SDS011;69097;52.132;5.422;2023-07-29T11:13:33;4.90;;;2.85;;
79616;SDS011;69097;52.132;5.422;2023-07-29T11:16:02;6.68;;;2.92;;
79616;SDS011;69097;52.132;5.422;2023-07-29T11:18:33;4.40;;;2.60;;
79616;SDS011;69097;52.132;5.422;2023-07-29T11:21:02;4.45;;;2.45;;
79616;SDS011;69097;52.132;5.422;2023-07-29T11:23:33;4.88;;;2.22;;
79616;SDS011;69097;52.132;5.422;2023-07-29T11:26:02;4.32;;;1.85;;
79616;SDS011;69097;52.132;5.422;2023-07-29T11:28:29;3.55;;;1.48;;
79616;SDS011;69097;52.132;5.422;2023-07-29T11:30:56;5.00;;;2.05;;
79616;SDS011;69097;52.132;5.422;2023-07-29T11:33:24;5.30;;;2.00;;
79616;SDS011;69097;52.132;5.422;2023-07-29T11:35:52;4.90;;;2.80;;
79616;SDS011;69097;52.132;5.422;2023-07-29T11:38:19;3.60;;;1.80;;
79616;SDS011;69097;52.132;5.422;2023-07-29T11:40:56;5.10;;;2.08;;
79616;SDS011;69097;52.132;5.422;2023-07-29T11:43:29;3.85;;;1.70;;
79616;SDS011;69097;52.132;5.422;2023-07-29T11:45:57;6.00;;;1.80;;
79616;SDS011;69097;52.132;5.422;2023-07-29T11:48:30;4.72;;;2.10;;
79616;SDS011;69097;52.132;5.422;2023-07-29T11:50:58;4.95;;;2.03;;
79616;SDS011;69097;52.132;5.422;2023-07-29T11:55:59;3.10;;;1.55;;
79616;SDS011;69097;52.132;5.422;2023-07-29T11:58:26;5.45;;;1.17;;
79616;SDS011;69097;52.132;5.422;2023-07-29T12:00:54;3.35;;;1.60;;
79616;SDS011;69097;52.132;5.422;2023-07-29T12:03:20;4.57;;;1.88;;
79616;SDS011;69097;52.132;5.422;2023-07-29T12:05:48;4.47;;;1.95;;
79616;SDS011;69097;52.132;5.422;2023-07-29T12:08:15;6.15;;;2.35;;
79616;SDS011;69097;52.132;5.422;2023-07-29T12:10:42;4.72;;;2.15;;
79616;SDS011;69097;52.132;5.422;2023-07-29T12:13:09;5.75;;;1.90;;
79616;SDS011;69097;52.132;5.422;2023-07-29T12:15:37;4.65;;;1.90;;
79616;SDS011;69097;52.132;5.422;2023-07-29T12:18:04;4.63;;;2.00;;
79616;SDS011;69097;52.132;5.422;2023-07-29T12:22:58;4.20;;;2.00;;
79616;SDS011;69097;52.132;5.422;2023-07-29T12:25:29;4.25;;;2.05;;
79616;SDS011;69097;52.132;5.422;2023-07-29T12:27:56;5.25;;;2.13;;
79616;SDS011;69097;52.132;5.422;2023-07-29T12:30:34;4.18;;;2.25;;
79616;SDS011;69097;52.132;5.422;2023-07-29T12:35:33;5.35;;;2.50;;
79616;SDS011;69097;52.132;5.422;2023-07-29T12:38:02;5.88;;;2.30;;
79616;SDS011;69097;52.132;5.422;2023-07-29T12:40:28;4.32;;;2.35;;
79616;SDS011;69097;52.132;5.422;2023-07-29T12:42:55;4.38;;;2.00;;
79616;SDS011;69097;52.132;5.422;2023-07-29T12:45:22;4.75;;;2.17;;
79616;SDS011;69097;52.132;5.422;2023-07-29T12:47:52;6.05;;;2.05;;
79616;SDS011;69097;52.132;5.422;2023-07-29T12:50:20;4.75;;;2.13;;
79616;SDS011;69097;52.132;5.422;2023-07-29T12:52:47;5.88;;;1.95;;
79616;SDS011;69097;52.132;5.422;2023-07-29T12:55:13;6.47;;;1.30;;
79616;SDS011;69097;52.132;5.422;2023-07-29T12:57:43;4.35;;;2.35;;
79616;SDS011;69097;52.132;5.422;2023-07-29T13:00:10;6.72;;;2.15;;
79616;SDS011;69097;52.132;5.422;2023-07-29T13:02:37;4.53;;;1.95;;
79616;SDS011;69097;52.132;5.422;2023-07-29T13:05:04;3.78;;;1.70;;
79616;SDS011;69097;52.132;5.422;2023-07-29T13:07:31;13.50;;;2.92;;
79616;SDS011;69097;52.132;5.422;2023-07-29T13:09:57;3.83;;;1.40;;
79616;SDS011;69097;52.132;5.422;2023-07-29T13:12:24;5.07;;;2.10;;
79616;SDS011;69097;52.132;5.422;2023-07-29T13:14:50;5.00;;;2.10;;
79616;SDS011;69097;52.132;5.422;2023-07-29T13:17:17;5.03;;;1.80;;
79616;SDS011;69097;52.132;5.422;2023-07-29T13:22:10;3.85;;;1.55;;
79616;SDS011;69097;52.132;5.422;2023-07-29T13:24:37;3.75;;;1.85;;
79616;SDS011;69097;52.132;5.422;2023-07-29T13:27:03;3.08;;;1.00;;
79616;SDS011;69097;52.132;5.422;2023-07-29T13:29:31;3.40;;;1.50;;
79616;SDS011;69097;52.132;5.422;2023-07-29T13:31:58;3.70;;;1.60;;
79616;SDS011;69097;52.132;5.422;2023-07-29T13:34:24;4.32;;;1.52;;
79616;SDS011;69097;52.132;5.422;2023-07-29T13:36:51;4.45;;;1.65;;
79616;SDS011;69097;52.132;5.422;2023-07-29T13:39:17;3.25;;;1.58;;
79616;SDS011;69097;52.132;5.422;2023-07-29T13:41:46;3.28;;;1.70;;
79616;SDS011;69097;52.132;5.422;2023-07-29T13:44:13;4.93;;;1.65;;
79616;SDS011;69097;52.132;5.422;2023-07-29T13:46:39;5.60;;;1.95;;
79616;SDS011;69097;52.132;5.422;2023-07-29T13:49:05;3.60;;;1.60;;
79616;SDS011;69097;52.132;5.422;2023-07-29T13:51:34;3.10;;;1.67;;
79616;SDS011;69097;52.132;5.422;2023-07-29T13:54:01;3.65;;;1.75;;
79616;SDS011;69097;52.132;5.422;2023-07-29T13:58:54;3.42;;;1.48;;
79616;SDS011;69097;52.132;5.422;2023-07-29T14:01:21;3.00;;;1.45;;
79616;SDS011;69097;52.132;5.422;2023-07-29T14:03:48;3.97;;;1.80;;
79616;SDS011;69097;52.132;5.422;2023-07-29T14:06:15;5.07;;;2.03;;
79616;SDS011;69097;52.132;5.422;2023-07-29T14:08:42;4.00;;;1.90;;
79616;SDS011;69097;52.132;5.422;2023-07-29T14:11:09;4.28;;;2.05;;
79616;SDS011;69097;52.132;5.422;2023-07-29T14:13:36;4.68;;;1.98;;
79616;SDS011;69097;52.132;5.422;2023-07-29T14:16:02;4.95;;;1.40;;
79616;SDS011;69097;52.132;5.422;2023-07-29T14:18:30;4.80;;;1.50;;
79616;SDS011;69097;52.132;5.422;2023-07-29T14:20:56;4.13;;;1.83;;
79616;SDS011;69097;52.132;5.422;2023-07-29T14:23:23;5.70;;;1.83;;
79616;SDS011;69097;52.132;5.422;2023-07-29T14:25:50;3.88;;;1.90;;
79616;SDS011;69097;52.132;5.422;2023-07-29T14:28:16;4.28;;;1.63;;
79616;SDS011;69097;52.132;5.422;2023-07-29T14:30:43;4.13;;;1.73;;
79616;SDS011;69097;52.132;5.422;2023-07-29T14:33:10;4.72;;;2.38;;
79616;SDS011;69097;52.132;5.422;2023-07-29T14:38:04;4.05;;;2.30;;
79616;SDS011;69097;52.132;5.422;2023-07-29T14:40:30;5.00;;;2.05;;
79616;SDS011;69097;52.132;5.422;2023-07-29T14:42:57;4.65;;;1.73;;
79616;SDS011;69097;52.132;5.422;2023-07-29T14:45:24;7.05;;;2.17;;
79616;SDS011;69097;52.132;5.422;2023-07-29T14:47:51;3.95;;;1.30;;
79616;SDS011;69097;52.132;5.422;2023-07-29T14:50:17;4.68;;;1.58;;
79616;SDS011;69097;52.132;5.422;2023-07-29T14:52:44;3.30;;;1.17;;
79616;SDS011;69097;52.132;5.422;2023-07-29T14:55:10;3.95;;;1.50;;
79616;SDS011;69097;52.132;5.422;2023-07-29T14:57:37;3.45;;;1.75;;
79616;SDS011;69097;52.132;5.422;2023-07-29T15:00:04;4.47;;;1.20;;
79616;SDS011;69097;52.132;5.422;2023-07-29T15:02:31;3.78;;;1.40;;
79616;SDS011;69097;52.132;5.422;2023-07-29T15:07:24;3.30;;;1.20;;
79616;SDS011;69097;52.132;5.422;2023-07-29T15:09:50;5.63;;;1.30;;
79616;SDS011;69097;52.132;5.422;2023-07-29T15:12:17;4.30;;;0.60;;
79616;SDS011;69097;52.132;5.422;2023-07-29T15:14:43;3.08;;;0.60;;
79616;SDS011;69097;52.132;5.422;2023-07-29T15:17:10;5.53;;;1.45;;
79616;SDS011;69097;52.132;5.422;2023-07-29T15:19:37;3.40;;;1.60;;
79616;SDS011;69097;52.132;5.422;2023-07-29T15:22:04;4.20;;;1.60;;
79616;SDS011;69097;52.132;5.422;2023-07-29T15:26:57;3.72;;;1.63;;
79616;SDS011;69097;52.132;5.422;2023-07-29T15:29:24;4.20;;;1.80;;
79616;SDS011;69097;52.132;5.422;2023-07-29T15:31:50;4.03;;;1.33;;
79616;SDS011;69097;52.132;5.422;2023-07-29T15:34:17;3.85;;;1.85;;
79616;SDS011;69097;52.132;5.422;2023-07-29T15:36:43;3.05;;;1.35;;
79616;SDS011;69097;52.132;5.422;2023-07-29T15:39:10;3.72;;;1.55;;
79616;SDS011;69097;52.132;5.422;2023-07-29T15:41:36;4.50;;;0.90;;
79616;SDS011;69097;52.132;5.422;2023-07-29T15:44:03;4.90;;;1.58;;
79616;SDS011;69097;52.132;5.422;2023-07-29T15:46:29;4.95;;;1.58;;
79616;SDS011;69097;52.132;5.422;2023-07-29T15:48:57;3.90;;;2.03;;
79616;SDS011;69097;52.132;5.422;2023-07-29T15:51:26;3.45;;;1.40;;
79616;SDS011;69097;52.132;5.422;2023-07-29T15:53:53;3.97;;;1.50;;